Time;durP1;ratioP1;P1;durP2;ratioP2;P2;SDS_P1;SDS_P2;PMS_P1;PMS_P2;Temp;Humidity;BMP_temperature;BMP_pressure;BME280_temperature;BME280_humidity;BME280_pressure;Samples;Min_cycle;Max_cycle;Signal;HPM_P1;HPM_P2
2022/10/03 00:00:10;;;;;;;2.67;1.77;;;;;;;12.71;86.49;102001.44;6250998;28;20231;-73
2022/10/03 00:03:36;;;;;;;3.13;1.20;;;;;;;12.68;86.35;102000.84;6254281;28;20227;-74
2022/10/03 00:07:10;;;;;;;5.43;1.13;;;;;;;12.63;86.65;102003.03;6251741;28;20231;-73
2022/10/03 00:10:38;;;;;;;3.33;2.20;;;;;;;12.47;87.40;102008.81;6247291;28;20227;-73
2022/10/03 00:14:09;;;;;;;3.83;1.10;;;;;;;12.55;86.85;102014.47;6250556;28;20231;-74
2022/10/03 00:17:42;;;;;;;3.80;1.40;;;;;;;12.61;86.27;102011.28;6260420;28;20223;-74
2022/10/03 00:21:18;;;;;;;3.47;1.60;;;;;;;12.60;86.72;102009.53;6238091;28;20497;-74
2022/10/03 00:24:54;;;;;;;7.57;2.10;;;;;;;12.57;86.64;102012.50;6251652;28;20571;-73
2022/10/03 00:28:26;;;;;;;6.03;2.13;;;;;;;12.68;86.85;102014.38;6250122;28;20228;-73
2022/10/03 00:32:02;;;;;;;2.77;1.67;;;;;;;12.70;86.40;102010.53;6243453;28;20227;-73
2022/10/03 00:35:44;;;;;;;4.73;1.57;;;;;;;12.70;86.28;102017.81;6251311;28;20255;-73
2022/10/03 00:39:39;;;;;;;9.40;1.50;;;;;;;12.71;85.79;102016.81;6250774;28;20239;-74
2022/10/03 00:43:25;;;;;;;4.47;1.20;;;;;;;12.69;86.00;102016.06;6250769;28;20664;-74
2022/10/03 00:47:03;;;;;;;3.83;2.30;;;;;;;12.71;85.98;102023.09;6249788;28;20811;-74
2022/10/03 00:50:41;;;;;;;4.93;1.50;;;;;;;12.74;85.60;102024.69;6249519;28;20351;-72
2022/10/03 00:54:17;;;;;;;4.10;1.37;;;;;;;12.84;86.01;102026.53;6249821;28;20255;-74
2022/10/03 00:58:02;;;;;;;6.43;2.27;;;;;;;12.83;86.04;102024.81;6255104;28;20508;-74
2022/10/03 01:01:34;;;;;;;4.07;1.87;;;;;;;12.95;85.76;102022.97;6249037;28;20259;-74
2022/10/03 01:05:02;;;;;;;8.60;2.07;;;;;;;12.94;85.10;102023.94;6247642;28;20247;-74
2022/10/03 01:08:40;;;;;;;5.50;1.80;;;;;;;12.98;85.09;102033.53;6248302;28;20243;-75
2022/10/03 01:12:32;;;;;;;5.37;2.33;;;;;;;13.01;84.95;102029.75;6227431;28;20232;-74
2022/10/03 01:16:06;;;;;;;3.60;1.63;;;;;;;12.95;84.94;102033.81;6224836;28;20224;-73
2022/10/03 01:19:56;;;;;;;3.37;2.10;;;;;;;12.92;85.34;102042.16;6224913;28;20235;-74
2022/10/03 01:23:49;;;;;;;2.90;2.50;;;;;;;13.00;85.30;102050.53;6250026;28;20526;-73
2022/10/03 01:27:15;;;;;;;6.13;2.93;;;;;;;12.91;85.80;102043.16;6251769;28;20251;-74
2022/10/03 01:30:41;;;;;;;2.37;1.57;;;;;;;12.89;86.80;102046.97;6234183;28;20240;-74
2022/10/03 01:34:11;;;;;;;2.77;1.50;;;;;;;12.94;86.64;102044.75;6248347;28;20322;-74
2022/10/03 01:37:40;;;;;;;2.63;1.27;;;;;;;12.92;85.85;102044.88;6250309;28;20224;-74
2022/10/03 01:41:09;;;;;;;6.50;1.70;;;;;;;12.88;85.81;102058.75;6248830;28;20235;-73
2022/10/03 01:44:39;;;;;;;2.87;1.60;;;;;;;12.84;85.62;102058.16;6249023;28;20239;-74
2022/10/03 01:48:08;;;;;;;5.60;1.63;;;;;;;12.68;86.81;102063.06;6248321;28;20540;-73
2022/10/03 01:51:34;;;;;;;3.17;1.43;;;;;;;12.62;86.52;102063.56;6249565;28;20231;-74
2022/10/03 01:55:02;;;;;;;5.43;3.30;;;;;;;12.58;86.74;102065.59;6241185;28;20228;-74
2022/10/03 01:58:33;;;;;;;1.90;1.13;;;;;;;12.54;86.58;102074.06;6253093;28;20231;-74
2022/10/03 02:02:01;;;;;;;2.07;1.87;;;;;;;12.48;86.26;102079.97;6253355;28;20227;-74
2022/10/03 02:05:38;;;;;;;4.60;1.50;;;;;;;12.39;86.65;102070.72;6254180;28;20227;-74
2022/10/03 02:09:06;;;;;;;2.77;1.27;;;;;;;12.35;87.15;102081.91;6254591;28;20239;-74
2022/10/03 02:12:33;;;;;;;2.00;1.33;;;;;;;12.33;86.45;102087.41;6255112;28;20322;-75
2022/10/03 02:16:01;;;;;;;3.60;1.33;;;;;;;12.23;86.77;102091.81;6253763;28;20219;-74
2022/10/03 02:19:28;;;;;;;4.73;2.63;;;;;;;12.33;86.93;102090.13;6252783;28;20235;-74
2022/10/03 02:22:53;;;;;;;4.53;1.20;;;;;;;12.41;86.62;102092.25;6255580;28;20235;-74
2022/10/03 02:26:45;;;;;;;1.33;1.23;;;;;;;12.39;86.01;102089.66;6252413;28;20231;-74
2022/10/03 02:30:15;;;;;;;1.43;1.00;;;;;;;12.36;86.68;102097.16;6251517;28;20228;-74
2022/10/03 02:34:06;;;;;;;6.53;1.60;;;;;;;12.15;87.11;102104.19;6253073;28;20243;-74
2022/10/03 02:37:41;;;;;;;2.60;1.37;;;;;;;12.10;87.22;102101.81;6256283;28;20267;-74
2022/10/03 02:41:36;;;;;;;1.90;1.13;;;;;;;12.13;87.05;102109.72;6254574;28;20235;-73
2022/10/03 02:45:37;;;;;;;8.43;1.70;;;;;;;12.05;87.84;102109.44;6254246;28;20629;-74
2022/10/03 02:49:25;;;;;;;3.47;1.23;;;;;;;12.12;87.60;102117.94;6246166;28;22769;-73
2022/10/03 02:53:19;;;;;;;6.97;1.93;;;;;;;12.01;87.61;102124.16;6251572;28;20232;-73
2022/10/03 02:57:15;;;;;;;12.00;1.97;;;;;;;11.99;87.22;102121.56;6239054;28;20338;-73
2022/10/03 03:00:59;;;;;;;2.57;1.50;;;;;;;12.02;87.49;102125.88;6249691;28;20231;-74
2022/10/03 03:04:51;;;;;;;3.37;1.50;;;;;;;11.96;87.06;102127.19;6252092;28;20334;-75
2022/10/03 03:08:32;;;;;;;9.00;1.97;;;;;;;11.94;88.12;102131.84;6253760;28;20224;-75
2022/10/03 03:12:35;;;;;;;4.00;1.70;;;;;;;11.96;87.87;102132.59;6250578;28;20700;-74
2022/10/03 03:16:39;;;;;;;2.47;1.80;;;;;;;11.94;87.87;102133.69;6226750;28;20220;-74
2022/10/03 03:20:36;;;;;;;3.13;1.10;;;;;;;11.96;86.97;102139.84;6221496;28;20228;-74
2022/10/03 03:24:12;;;;;;;13.50;2.23;;;;;;;11.88;87.05;102135.03;6227558;28;20240;-74
2022/10/03 03:27:46;;;;;;;6.00;1.87;;;;;;;11.87;87.66;102135.13;6224149;28;20232;-74
2022/10/03 03:31:11;;;;;;;3.27;1.70;;;;;;;11.89;87.13;102135.91;6227785;28;20232;-74
2022/10/03 03:34:42;;;;;;;4.17;1.60;;;;;;;11.91;87.23;102145.59;6255327;28;20247;-74
2022/10/03 03:38:18;;;;;;;2.13;1.80;;;;;;;11.82;87.36;102150.81;6249353;28;20235;-74
2022/10/03 03:42:01;;;;;;;5.20;1.17;;;;;;;11.76;87.91;102151.28;6237658;28;20232;-74
2022/10/03 03:45:42;;;;;;;1.77;1.23;;;;;;;11.88;87.21;102148.53;6249209;28;20231;-74
2022/10/03 03:49:28;;;;;;;1.60;1.37;;;;;;;11.87;87.60;102152.19;6246184;28;20232;-74
2022/10/03 03:53:02;;;;;;;3.03;2.53;;;;;;;11.87;88.11;102149.50;6250687;28;21074;-73
2022/10/03 03:56:45;;;;;;;2.53;1.40;;;;;;;11.83;87.18;102150.69;6250573;28;20511;-74
2022/10/03 04:00:14;;;;;;;1.57;1.43;;;;;;;11.71;87.62;102148.03;6244889;28;20227;-74
2022/10/03 04:03:47;;;;;;;3.33;1.20;;;;;;;11.74;88.55;102150.53;6252977;28;20231;-74
2022/10/03 04:07:22;;;;;;;7.53;2.03;;;;;;;11.77;88.17;102152.97;6250006;28;20223;-74
2022/10/03 04:10:53;;;;;;;3.83;1.37;;;;;;;11.66;88.33;102151.06;6245948;28;20613;-74
2022/10/03 04:14:34;;;;;;;9.90;1.73;;;;;;;11.59;88.71;102157.00;6249369;28;20302;-74
2022/10/03 04:22:18;;;;;;;4.87;1.77;;;;;;;11.62;89.06;102163.03;6238687;28;20216;-74
2022/10/03 04:25:53;;;;;;;3.53;1.37;;;;;;;11.67;87.94;102170.84;6248631;28;20326;-74
2022/10/03 04:29:42;;;;;;;3.07;1.90;;;;;;;11.56;89.09;102168.88;6221065;28;20239;-75
2022/10/03 04:33:16;;;;;;;5.03;1.20;;;;;;;11.60;88.63;102170.38;6250435;28;20228;-74
2022/10/03 04:37:08;;;;;;;2.27;0.97;;;;;;;11.63;88.52;102166.59;6224995;28;20223;-75
2022/10/03 04:40:45;;;;;;;2.50;1.17;;;;;;;11.56;89.32;102176.13;6225918;28;20541;-74
2022/10/03 04:44:18;;;;;;;7.37;2.90;;;;;;;11.57;89.37;102180.56;6249607;28;20227;-74
2022/10/03 04:47:48;;;;;;;8.37;2.20;;;;;;;11.62;89.21;102183.81;6247297;28;20231;-74
2022/10/03 04:51:18;;;;;;;2.47;1.53;;;;;;;11.59;89.68;102184.00;6249709;28;20231;-73
2022/10/03 04:54:48;;;;;;;3.70;1.67;;;;;;;11.54;88.73;102191.56;6248649;28;20258;-73
2022/10/03 04:58:24;;;;;;;2.37;1.77;;;;;;;11.59;89.61;102186.72;6249063;28;20230;-73
2022/10/03 05:01:52;;;;;;;2.20;1.03;;;;;;;11.46;89.23;102188.56;6206705;28;20232;-74
2022/10/03 05:05:41;;;;;;;2.00;1.37;;;;;;;11.53;89.82;102192.56;6225510;28;20232;-74
2022/10/03 05:09:21;;;;;;;7.47;1.37;;;;;;;11.50;90.47;102187.38;6222441;28;20228;-73
2022/10/03 05:12:54;;;;;;;2.87;1.77;;;;;;;11.47;90.65;102190.31;6217666;28;20232;-74
2022/10/03 05:16:21;;;;;;;3.60;1.27;;;;;;;11.47;90.99;102204.69;6201161;28;20216;-74
2022/10/03 05:19:57;;;;;;;4.20;1.20;;;;;;;11.43;90.26;102205.84;6244990;28;20597;-74
2022/10/03 05:23:30;;;;;;;3.43;1.30;;;;;;;11.48;90.68;102203.69;6224885;28;20220;-75
2022/10/03 05:26:57;;;;;;;2.90;1.63;;;;;;;11.55;90.47;102196.88;6238960;28;20235;-74
2022/10/03 05:30:39;;;;;;;3.73;2.13;;;;;;;11.50;90.24;102209.84;6248919;28;20224;-74
2022/10/03 05:34:10;;;;;;;8.67;2.00;;;;;;;11.57;90.10;102211.13;6254328;28;20227;-74
2022/10/03 05:37:48;;;;;;;5.23;2.30;;;;;;;11.56;90.06;102208.53;6256067;28;20500;-74
2022/10/03 05:41:20;;;;;;;2.83;2.33;;;;;;;11.54;90.63;102213.16;6243791;28;20243;-74
2022/10/03 05:44:45;;;;;;;3.80;1.07;;;;;;;11.61;90.28;102219.88;6248984;28;20342;-75
2022/10/03 05:48:14;;;;;;;4.47;2.00;;;;;;;11.59;89.60;102221.81;6242465;28;20641;-74
2022/10/03 05:52:00;;;;;;;5.37;1.80;;;;;;;11.61;90.25;102223.44;6241511;28;20239;-74
2022/10/03 05:55:36;;;;;;;3.23;1.10;;;;;;;11.66;90.45;102229.41;6249152;28;20228;-73
2022/10/03 05:59:31;;;;;;;3.10;1.40;;;;;;;11.69;89.67;102231.91;6251816;28;20246;-75
2022/10/03 06:03:21;;;;;;;4.50;1.70;;;;;;;11.77;89.31;102232.19;6241529;28;20231;-74
2022/10/03 06:07:01;;;;;;;3.37;1.73;;;;;;;11.83;88.85;102226.34;6227121;28;20240;-73
2022/10/03 06:10:46;;;;;;;7.30;1.90;;;;;;;11.87;88.71;102235.09;6239942;28;20235;-74
2022/10/03 06:14:26;;;;;;;4.90;1.47;;;;;;;11.92;88.25;102233.81;6250853;28;20228;-74
2022/10/03 06:18:02;;;;;;;6.10;1.70;;;;;;;11.99;88.68;102240.47;6252290;28;20605;-73
2022/10/03 06:22:04;;;;;;;4.80;1.90;;;;;;;12.02;88.07;102242.97;6247523;28;20224;-74
2022/10/03 06:25:54;;;;;;;3.07;2.33;;;;;;;12.21;88.43;102238.91;6229629;28;20230;-74
2022/10/03 06:29:41;;;;;;;5.23;3.77;;;;;;;12.35;87.83;102239.59;6243525;28;20251;-74
2022/10/03 06:33:40;;;;;;;5.17;1.43;;;;;;;12.34;87.12;102234.31;6255237;28;20794;-74
2022/10/03 06:37:39;;;;;;;3.47;1.87;;;;;;;12.62;86.40;102251.06;6262178;28;20227;-74
2022/10/03 06:41:42;;;;;;;3.33;2.20;;;;;;;12.70;86.10;102264.03;6250950;28;20239;-74
2022/10/03 06:45:43;;;;;;;3.23;1.57;;;;;;;12.84;85.51;102267.41;6252082;28;21023;-74
2022/10/03 06:49:32;;;;;;;2.33;1.30;;;;;;;12.71;86.24;102261.19;6223887;28;20318;-74
2022/10/03 06:53:31;;;;;;;2.30;1.77;;;;;;;12.53;86.46;102269.84;6250912;28;20235;-74
2022/10/03 06:57:16;;;;;;;8.50;4.33;;;;;;;12.53;86.80;102269.84;6251973;28;20228;-74
2022/10/03 07:00:53;;;;;;;2.57;2.20;;;;;;;12.48;86.57;102274.72;6250846;28;20314;-73
2022/10/03 07:04:46;;;;;;;4.83;2.70;;;;;;;12.62;86.03;102270.00;6253402;28;20231;-74
2022/10/03 07:08:37;;;;;;;4.27;1.50;;;;;;;12.74;85.94;102273.63;6213032;28;20224;-73
2022/10/03 07:12:32;;;;;;;2.83;1.40;;;;;;;12.96;85.36;102273.72;6245678;28;20319;-74
2022/10/03 07:16:19;;;;;;;4.07;2.37;;;;;;;13.27;84.13;102272.25;6225402;28;20232;-74
2022/10/03 07:20:09;;;;;;;7.63;2.03;;;;;;;13.34;83.78;102270.81;6240649;28;20492;-74
2022/10/03 07:23:54;;;;;;;4.77;1.73;;;;;;;13.60;83.05;102270.47;6248011;28;20374;-74
2022/10/03 07:27:26;;;;;;;7.10;1.50;;;;;;;13.84;81.87;102266.78;6244135;28;20625;-74
2022/10/03 07:31:02;;;;;;;5.07;2.20;;;;;;;13.75;81.86;102268.38;6244501;28;20635;-75
2022/10/03 07:35:02;;;;;;;3.00;2.43;;;;;;;13.59;82.35;102278.72;6250248;28;20529;-74
2022/10/03 07:38:58;;;;;;;2.10;1.90;;;;;;;13.97;81.65;102292.81;6242819;28;20227;-74
2022/10/03 07:42:41;;;;;;;5.70;1.70;;;;;;;13.84;81.59;102289.34;6250652;28;20223;-74
2022/10/03 07:46:42;;;;;;;2.57;1.77;;;;;;;13.76;82.41;102293.66;6246561;28;20948;-75
2022/10/03 07:50:44;;;;;;;5.07;1.80;;;;;;;13.81;82.43;102292.28;6247529;28;20231;-75
2022/10/03 07:54:43;;;;;;;2.93;1.13;;;;;;;14.01;82.18;102297.00;6249804;28;20756;-74
2022/10/03 07:58:32;;;;;;;6.50;2.47;;;;;;;14.19;81.60;102292.78;6162828;28;20231;-73
2022/10/03 08:02:15;;;;;;;9.93;1.33;;;;;;;14.30;81.16;102305.50;6243923;28;20216;-74
2022/10/03 08:05:53;;;;;;;3.83;1.70;;;;;;;14.36;80.94;102303.16;6242625;28;20830;-74
2022/10/03 08:09:39;;;;;;;3.00;1.57;;;;;;;14.43;80.28;102303.53;6223165;28;20238;-73
2022/10/03 08:13:26;;;;;;;5.50;1.40;;;;;;;14.49;80.58;102308.44;6256325;28;20235;-72
2022/10/03 08:17:20;;;;;;;3.23;1.20;;;;;;;14.66;79.96;102312.47;6224932;28;20255;-71
2022/10/03 08:20:54;;;;;;;8.13;1.47;;;;;;;14.63;80.10;102312.72;6243846;28;20244;-73
2022/10/03 08:24:28;;;;;;;5.67;1.60;;;;;;;14.67;79.78;102308.75;6254369;28;20251;-72
2022/10/03 08:28:13;;;;;;;4.60;2.13;;;;;;;14.84;79.34;102319.94;6258170;28;20608;-72
2022/10/03 08:31:54;;;;;;;4.30;2.23;;;;;;;15.13;78.58;102314.78;6253084;28;20318;-73
2022/10/03 08:35:34;;;;;;;2.10;1.07;;;;;;;14.97;78.52;102317.06;6251706;28;20255;-73
2022/10/03 08:39:12;;;;;;;7.40;1.30;;;;;;;15.18;77.86;102318.84;6257144;28;20251;-72
2022/10/03 08:43:04;;;;;;;2.07;1.40;;;;;;;15.47;77.18;102321.81;6262164;28;20309;-72
2022/10/03 08:46:53;;;;;;;11.90;2.20;;;;;;;15.62;76.66;102325.06;6249182;28;20251;-74
2022/10/03 08:50:33;;;;;;;6.80;1.40;;;;;;;16.09;75.25;102331.72;6248787;28;20330;-75
2022/10/03 08:54:10;;;;;;;5.17;3.63;;;;;;;16.73;76.14;102317.66;6263901;28;20229;-73
2022/10/03 08:58:01;;;;;;;23.00;17.77;;;;;;;17.37;73.93;102323.44;6249889;28;20228;-72
2022/10/03 09:01:31;;;;;;;29.83;27.70;;;;;;;17.47;74.00;102316.13;6247297;28;20231;-73
2022/10/03 09:05:25;;;;;;;154.63;130.93;;;;;;;17.75;71.44;102325.28;6255491;28;20223;-72
2022/10/03 09:09:05;;;;;;;668.40;501.07;;;;;;;18.65;67.38;102320.06;6258977;28;20231;-71
2022/10/03 09:13:02;;;;;;;650.50;580.13;;;;;;;18.03;69.06;102318.88;6256808;28;20235;-75
2022/10/03 09:16:50;;;;;;;164.35;145.73;;;;;;;17.77;69.53;102328.72;6252191;28;20281;-75
2022/10/03 09:20:30;;;;;;;86.28;80.60;;;;;;;18.25;67.82;102331.28;6257307;28;20322;-73
2022/10/03 09:24:17;;;;;;;206.15;188.85;;;;;;;17.88;71.06;102336.72;6229942;28;20231;-73
2022/10/03 09:27:51;;;;;;;45.03;41.65;;;;;;;18.38;66.96;102343.56;6260902;28;20231;-73
2022/10/03 09:31:33;;;;;;;48.92;45.85;;;;;;;17.60;72.29;102339.50;6228877;28;20235;-72
2022/10/03 09:35:21;;;;;;;50.00;41.75;;;;;;;17.98;68.70;102343.00;6230838;28;21104;-72
2022/10/03 09:39:04;;;;;;;8.40;3.33;;;;;;;18.40;67.33;102328.94;6237462;28;20644;-72
2022/10/03 09:42:58;;;;;;;13.25;1.70;;;;;;;17.43;69.29;102335.63;6237787;28;20327;-74
2022/10/03 09:46:40;;;;;;;9.88;2.38;;;;;;;17.20;71.64;102334.19;6216852;28;20228;-73
2022/10/03 09:50:35;;;;;;;5.05;1.25;;;;;;;17.94;68.41;102327.09;6219451;28;20228;-74
2022/10/03 09:54:33;;;;;;;3.35;1.65;;;;;;;17.56;69.22;102328.06;6221663;28;20251;-73
2022/10/03 09:58:15;;;;;;;4.60;1.85;;;;;;;17.79;68.60;102336.75;6243382;28;20753;-74
2022/10/03 10:01:43;;;;;;;5.07;2.50;;;;;;;18.26;67.30;102330.28;6241478;28;20240;-73
2022/10/03 10:05:39;;;;;;;5.05;1.60;;;;;;;19.53;62.87;102323.66;6224353;28;20239;-74
2022/10/03 10:09:31;;;;;;;3.90;1.02;;;;;;;17.82;68.09;102337.31;6246598;28;21053;-74
2022/10/03 10:13:21;;;;;;;4.25;1.08;;;;;;;18.14;67.95;102326.88;6250773;28;20236;-74
2022/10/03 10:17:06;;;;;;;2.80;1.80;;;;;;;19.61;62.88;102331.09;6239444;28;20227;-74
2022/10/03 10:20:49;;;;;;;3.30;1.05;;;;;;;22.88;53.00;102307.13;6237737;28;20876;-75
2022/10/03 10:24:50;;;;;;;7.38;1.48;;;;;;;23.92;48.18;102305.41;6252468;28;21965;-74
2022/10/03 10:28:58;;;;;;;2.60;1.70;;;;;;;20.14;59.69;102306.28;6258942;28;20234;-74
2022/10/03 10:33:03;;;;;;;2.42;1.00;;;;;;;18.51;64.92;102318.69;6250444;28;20228;-75
2022/10/03 10:37:01;;;;;;;4.50;1.95;;;;;;;21.90;53.85;102319.53;6252636;28;20657;-73
2022/10/03 10:41:17;;;;;;;5.03;0.98;;;;;;;23.94;47.45;102306.06;6239173;28;20613;-71
2022/10/03 10:45:15;;;;;;;4.93;2.97;;;;;;;27.10;41.18;102308.81;6260772;28;20676;-68
2022/10/03 10:49:17;;;;;;;1.45;0.70;;;;;;;26.41;41.30;102300.66;6242413;28;20240;-75
2022/10/03 10:53:14;;;;;;;2.65;1.20;;;;;;;27.16;38.39;102302.44;6240141;28;20549;-74
2022/10/03 10:57:13;;;;;;;1.77;0.80;;;;;;;22.67;48.93;102304.16;6232965;28;20231;-74
2022/10/03 11:01:01;;;;;;;4.22;1.40;;;;;;;22.11;50.13;102302.50;6218585;28;20228;-74
2022/10/03 11:05:06;;;;;;;2.22;0.88;;;;;;;20.50;55.51;102329.78;6223846;28;20239;-74
2022/10/03 11:08:55;;;;;;;2.28;0.98;;;;;;;19.12;60.62;102313.38;6228089;28;20231;-74
2022/10/03 11:12:59;;;;;;;1.95;0.88;;;;;;;18.52;62.18;102309.50;6216137;28;20216;-74
2022/10/03 11:17:00;;;;;;;2.30;1.17;;;;;;;18.05;64.37;102324.16;6217381;28;20243;-74
2022/10/03 11:20:56;;;;;;;1.15;0.80;;;;;;;17.61;65.81;102317.53;6215331;28;20263;-75
2022/10/03 11:25:21;;;;;;;1.98;1.33;;;;;;;17.61;67.40;102322.16;6231685;28;20215;-75
2022/10/03 11:29:23;;;;;;;1.77;1.13;;;;;;;17.70;68.96;102333.03;6200901;28;20252;-75
2022/10/03 11:33:30;;;;;;;4.45;1.85;;;;;;;17.50;68.49;102328.63;6193412;28;20225;-75
2022/10/03 11:37:24;;;;;;;2.50;0.90;;;;;;;17.54;69.21;102332.78;6196697;28;20240;-73
2022/10/03 11:40:58;;;;;;;12.75;1.48;;;;;;;17.46;70.06;102324.41;6210924;28;20227;-74
2022/10/03 11:44:23;;;;;;;3.45;1.73;;;;;;;17.43;70.11;102330.19;6235071;28;20314;-74
2022/10/03 11:47:55;;;;;;;4.18;1.60;;;;;;;17.33;71.38;102329.31;6239410;28;20272;-75
2022/10/03 11:51:21;;;;;;;1.10;0.73;;;;;;;17.35;70.74;102322.72;6230556;28;20253;-75
2022/10/03 11:54:48;;;;;;;4.07;1.42;;;;;;;18.20;68.39;102325.41;6231678;28;20227;-76
2022/10/03 11:58:37;;;;;;;5.70;1.10;;;;;;;22.41;54.74;102331.03;6229268;28;20311;-75
2022/10/03 12:02:10;;;;;;;1.35;0.90;;;;;;;23.30;51.60;102323.19;6242640;28;20251;-73
2022/10/03 12:05:47;;;;;;;1.40;0.68;;;;;;;26.76;41.93;102318.91;6238131;28;20278;-74
2022/10/03 12:09:18;;;;;;;1.00;0.90;;;;;;;27.73;40.49;102319.34;6242371;28;20228;-73
2022/10/03 12:12:44;;;;;;;2.47;1.10;;;;;;;22.94;50.67;102326.53;6241212;28;20219;-74
2022/10/03 12:16:16;;;;;;;1.23;0.88;;;;;;;20.21;59.56;102341.13;6244192;28;20610;-74
2022/10/03 12:19:48;;;;;;;3.28;1.42;;;;;;;18.94;64.73;102337.13;6243544;28;20235;-75
2022/10/03 12:23:25;;;;;;;1.30;0.85;;;;;;;18.75;66.20;102327.19;6251809;28;20243;-73
2022/10/03 12:26:54;;;;;;;2.65;1.50;;;;;;;17.99;68.82;102327.50;6256194;28;20617;-75
2022/10/03 12:30:20;;;;;;;1.70;1.60;;;;;;;17.97;69.47;102329.53;6247409;28;20224;-74
2022/10/03 12:33:51;;;;;;;3.15;1.77;;;;;;;17.68;70.75;102329.59;6250791;28;20228;-74
2022/10/03 12:37:28;;;;;;;5.35;1.02;;;;;;;17.94;70.27;102330.66;6246952;28;20220;-75
2022/10/03 12:41:00;;;;;;;2.20;2.00;;;;;;;18.46;68.78;102333.81;6249552;28;20314;-75
2022/10/03 12:44:31;;;;;;;1.60;1.42;;;;;;;18.65;67.57;102333.72;6249965;28;20231;-73
2022/10/03 12:48:16;;;;;;;4.05;1.13;;;;;;;18.92;66.88;102329.03;6248201;28;20263;-74
2022/10/03 12:51:51;;;;;;;1.77;0.90;;;;;;;18.30;68.38;102331.69;6253489;28;20232;-75
2022/10/03 12:55:25;;;;;;;5.28;1.05;;;;;;;18.06;69.24;102328.63;6243704;28;20369;-76
2022/10/03 12:58:57;;;;;;;1.70;1.08;;;;;;;18.26;68.91;102338.47;6253565;28;20231;-75
2022/10/03 13:02:26;;;;;;;2.38;1.30;;;;;;;18.01;68.85;102330.94;6243333;28;20231;-77
2022/10/03 13:06:32;;;;;;;7.72;2.38;;;;;;;17.88;69.52;102339.44;6246441;28;20232;-76
2022/10/03 13:10:13;;;;;;;7.10;1.30;;;;;;;17.78;71.02;102330.44;6242277;28;20597;-76
2022/10/03 13:13:48;;;;;;;3.70;1.73;;;;;;;17.44;71.39;102332.75;6248200;28;20247;-76
2022/10/03 13:17:23;;;;;;;3.45;2.67;;;;;;;17.33;72.42;102335.66;6249696;28;22004;-75
2022/10/03 13:20:55;;;;;;;2.08;1.00;;;;;;;17.23;72.02;102333.94;6239837;28;20223;-77
2022/10/03 13:24:31;;;;;;;2.13;0.82;;;;;;;17.39;70.71;102332.34;6243712;28;20314;-78
2022/10/03 13:28:01;;;;;;;5.53;2.10;;;;;;;17.68;69.42;102324.16;6253695;28;20227;-77
2022/10/03 13:31:28;;;;;;;4.93;1.50;;;;;;;17.52;69.30;102326.63;6241450;28;20224;-77
2022/10/03 13:35:57;;;;;;;2.58;2.20;;;;;;;17.39;70.51;102326.88;6238561;28;21774;-77
2022/10/03 13:39:10;;;;;;;3.08;1.70;;;;;;;17.52;70.35;102327.47;6242110;28;20589;-76
2022/10/03 13:42:38;;;;;;;2.70;1.55;;;;;;;17.33;70.63;102322.00;6236333;28;20243;-77
2022/10/03 13:46:01;;;;;;;1.70;1.00;;;;;;;17.28;70.62;102334.34;6238170;28;20231;-77
2022/10/03 13:49:31;;;;;;;2.03;1.48;;;;;;;17.31;70.40;102321.28;6238984;28;20315;-75
2022/10/03 13:52:55;;;;;;;5.07;2.40;;;;;;;17.46;70.51;102317.09;6259183;28;20226;-77
2022/10/03 13:56:30;;;;;;;4.32;1.40;;;;;;;17.30;70.38;102335.91;6245906;28;20295;-75
2022/10/03 14:00:08;;;;;;;3.40;2.20;;;;;;;17.37;71.20;102322.56;6252950;28;20231;-78
2022/10/03 14:03:47;;;;;;;6.25;2.65;;;;;;;19.80;62.35;102311.72;6244605;28;20326;-78
2022/10/03 14:07:21;;;;;;;6.60;1.30;;;;;;;18.44;66.72;102311.25;6243787;28;20236;-73
2022/10/03 14:11:17;;;;;;;2.67;1.50;;;;;;;18.00;68.08;102308.22;6232252;28;20232;-75
2022/10/03 14:14:49;;;;;;;3.22;1.15;;;;;;;17.64;68.41;102300.03;6249428;28;20310;-75
2022/10/03 14:18:25;;;;;;;2.22;1.42;;;;;;;17.32;69.41;102308.50;6249181;28;20251;-74
2022/10/03 14:22:05;;;;;;;5.82;1.95;;;;;;;17.07;70.35;102309.09;6242522;28;20526;-74
2022/10/03 14:25:31;;;;;;;6.13;1.48;;;;;;;17.04;70.77;102310.25;6245090;28;20232;-76
2022/10/03 14:28:59;;;;;;;1.93;1.40;;;;;;;16.84;71.56;102310.34;6248112;28;20251;-75
2022/10/03 14:32:26;;;;;;;6.73;1.03;;;;;;;16.57;71.89;102317.34;6260547;28;20235;-76
2022/10/03 14:36:08;;;;;;;1.77;1.07;;;;;;;16.53;72.82;102328.66;6253794;28;20235;-74
2022/10/03 14:39:37;;;;;;;1.70;1.00;;;;;;;16.55;73.34;102316.63;6247769;28;20585;-74
2022/10/03 14:43:23;;;;;;;2.73;1.13;;;;;;;16.71;72.80;102310.63;6248093;28;20223;-74
2022/10/03 14:46:50;;;;;;;3.03;1.27;;;;;;;17.02;71.81;102305.94;6251659;28;20221;-77
2022/10/03 14:50:17;;;;;;;5.23;1.77;;;;;;;18.68;66.28;102304.19;6243206;28;20231;-75
2022/10/03 14:53:47;;;;;;;3.75;2.08;;;;;;;17.40;70.21;102305.91;6247786;28;20597;-74
2022/10/03 14:57:21;;;;;;;5.57;1.50;;;;;;;16.84;72.85;102313.94;6247063;28;20247;-76
2022/10/03 15:00:44;;;;;;;3.77;1.67;;;;;;;16.63;74.58;102324.94;6248042;28;20529;-75
2022/10/03 15:04:08;;;;;;;3.03;1.43;;;;;;;16.91;74.10;102317.84;6247451;28;20232;-75
2022/10/03 15:07:34;;;;;;;6.77;2.13;;;;;;;16.88;74.33;102315.38;6259009;28;20275;-75
2022/10/03 15:10:57;;;;;;;2.20;1.50;;;;;;;16.75;75.25;102312.09;6259258;28;20232;-75
2022/10/03 15:14:19;;;;;;;1.95;1.20;;;;;;;16.78;75.27;102309.94;6257266;28;20220;-76
2022/10/03 15:17:46;;;;;;;3.05;2.33;;;;;;;16.53;76.30;102315.03;6251041;28;20247;-75
2022/10/03 15:21:14;;;;;;;1.90;1.17;;;;;;;16.64;75.88;102304.91;6236223;28;20347;-74
2022/10/03 15:24:35;;;;;;;1.92;0.90;;;;;;;16.70;75.31;102298.91;6258850;28;20224;-73
2022/10/03 15:28:02;;;;;;;2.50;0.88;;;;;;;16.68;75.04;102308.19;6260907;28;20240;-74
2022/10/03 15:31:32;;;;;;;2.60;1.65;;;;;;;16.62;74.72;102298.75;6252027;28;20665;-74
2022/10/03 15:34:59;;;;;;;2.03;1.15;;;;;;;16.54;74.86;102301.28;6254298;28;20239;-74
2022/10/03 15:38:23;;;;;;;1.35;1.27;;;;;;;16.52;74.67;102295.09;6256489;28;20228;-74
2022/10/03 15:41:52;;;;;;;1.27;0.73;;;;;;;16.45;74.53;102296.66;6247598;28;20472;-74
2022/10/03 15:45:20;;;;;;;2.75;1.65;;;;;;;16.35;74.61;102292.19;6250363;28;20235;-74
2022/10/03 15:48:42;;;;;;;1.33;0.90;;;;;;;16.34;74.22;102288.59;6257319;28;20219;-73
2022/10/03 15:52:14;;;;;;;3.17;0.90;;;;;;;16.24;74.28;102297.72;6245476;28;20240;-74
2022/10/03 15:55:41;;;;;;;3.40;1.30;;;;;;;16.19;74.78;102287.25;6220583;28;20266;-74
2022/10/03 15:59:06;;;;;;;3.43;1.73;;;;;;;16.16;74.79;102289.38;6244291;28;20232;-73
2022/10/03 16:02:34;;;;;;;4.00;1.30;;;;;;;16.19;74.72;102289.13;6237988;28;20240;-76
2022/10/03 16:06:06;;;;;;;1.80;0.90;;;;;;;16.07;74.93;102285.63;6242638;28;20228;-75
2022/10/03 16:09:32;;;;;;;2.50;1.37;;;;;;;16.07;75.29;102287.47;6245081;28;20247;-74
2022/10/03 16:12:59;;;;;;;4.93;1.37;;;;;;;15.96;75.64;102278.44;6245023;28;20354;-75
2022/10/03 16:16:25;;;;;;;1.47;1.37;;;;;;;15.91;76.44;102279.84;6242374;28;20235;-75
2022/10/03 16:19:53;;;;;;;3.03;2.13;;;;;;;15.65;76.93;102281.25;6244720;28;20224;-76
2022/10/03 16:23:18;;;;;;;2.90;1.07;;;;;;;15.67;77.47;102280.13;6241593;28;20243;-76
2022/10/03 16:26:49;;;;;;;7.47;1.63;;;;;;;15.65;77.87;102282.13;6254184;28;20251;-75
2022/10/03 16:30:19;;;;;;;5.73;2.00;;;;;;;15.58;77.90;102299.13;6249542;28;20235;-74
2022/10/03 16:33:46;;;;;;;2.60;1.60;;;;;;;15.48;78.63;102293.59;6252301;28;20231;-75
2022/10/03 16:37:17;;;;;;;3.87;1.33;;;;;;;15.41;78.63;102289.69;6258653;28;20314;-74
2022/10/03 16:40:39;;;;;;;3.83;1.57;;;;;;;15.38;79.04;102286.34;6249935;28;20250;-75
2022/10/03 16:44:02;;;;;;;3.00;1.37;;;;;;;15.29;80.00;102282.56;6253442;28;20228;-75
2022/10/03 16:47:35;;;;;;;3.57;1.53;;;;;;;15.17;80.45;102289.94;6251043;28;20243;-75
2022/10/03 16:50:55;;;;;;;3.27;1.53;;;;;;;15.16;80.46;102285.47;6252740;28;20231;-74
2022/10/03 16:54:19;;;;;;;2.47;1.53;;;;;;;15.09;81.02;102283.44;6243881;28;20501;-73
2022/10/03 16:57:45;;;;;;;3.90;2.60;;;;;;;15.08;81.23;102287.16;6255728;28;20240;-73
2022/10/03 17:01:09;;;;;;;2.80;1.43;;;;;;;15.05;81.50;102274.69;6253532;28;20219;-73